createdAt,value
2023-05-22T00:01:33.615Z,5.30
2023-05-22T00:04:02.922Z,7.30
2023-05-22T00:06:30.249Z,4.93
2023-05-22T00:08:57.689Z,4.60
2023-05-22T00:26:40.044Z,4.85
2023-05-22T00:29:07.106Z,3.50
2023-05-22T00:31:34.336Z,3.53
2023-05-22T00:49:47.799Z,3.80
2023-05-22T00:53:57.086Z,4.38
2023-05-22T00:56:29.066Z,3.95
2023-05-22T00:58:56.513Z,4.73
2023-05-22T01:01:26.601Z,3.63
2023-05-22T01:03:54.211Z,3.72
2023-05-22T01:06:21.569Z,3.53
2023-05-22T01:08:48.613Z,3.50
2023-05-22T01:11:42.026Z,4.40
2023-05-22T01:14:48.874Z,3.97
2023-05-22T01:17:40.791Z,3.00
2023-05-22T01:20:35.056Z,4.13
2023-05-22T01:23:49.581Z,5.25
2023-05-22T01:26:54.511Z,3.85
2023-05-22T01:29:52.135Z,7.13
2023-05-22T01:32:23.105Z,5.55
2023-05-22T01:34:58.204Z,6.10
2023-05-22T01:37:27.300Z,6.93
2023-05-22T01:39:56.172Z,8.43
2023-05-22T01:42:24.151Z,7.35
2023-05-22T01:44:51.508Z,7.35
2023-05-22T01:47:18.498Z,5.88
2023-05-22T01:49:47.347Z,10.45
2023-05-22T01:52:36.239Z,9.82
2023-05-22T01:55:20.313Z,8.82
2023-05-22T01:58:17.664Z,5.53
2023-05-22T02:00:47.449Z,6.80
2023-05-22T02:03:21.952Z,6.90
2023-05-22T02:05:58.296Z,7.30
2023-05-22T02:08:27.739Z,5.80
2023-05-22T02:10:56.989Z,8.07
2023-05-22T02:13:24.383Z,7.85
2023-05-22T02:15:52.583Z,6.88
2023-05-22T02:18:19.831Z,5.28
2023-05-22T02:20:47.214Z,6.07
2023-05-22T02:23:14.469Z,10.00
2023-05-22T02:25:41.763Z,8.27
2023-05-22T02:28:08.818Z,6.90
2023-05-22T02:30:36.038Z,5.20
2023-05-22T02:33:06.826Z,7.00
2023-05-22T02:35:34.106Z,8.25
2023-05-22T02:38:04.587Z,7.15
2023-05-22T02:40:31.949Z,5.70
2023-05-22T02:42:59.196Z,10.20
2023-05-22T02:45:28.710Z,8.23
2023-05-22T02:47:56.242Z,7.78
2023-05-22T02:50:23.570Z,5.82
2023-05-22T02:52:50.519Z,7.47
2023-05-22T02:55:17.747Z,7.22
2023-05-22T02:57:44.756Z,5.57
2023-05-22T03:00:12.503Z,6.63
2023-05-22T03:02:39.602Z,8.73
2023-05-22T03:05:08.116Z,5.80
2023-05-22T03:07:35.165Z,7.15
2023-05-22T03:10:02.456Z,8.02
2023-05-22T03:12:29.532Z,7.25
2023-05-22T03:14:56.851Z,5.97
2023-05-22T03:17:24.056Z,7.72
2023-05-22T03:19:51.374Z,6.65
2023-05-22T03:22:18.697Z,5.82
2023-05-22T03:24:45.989Z,4.70
2023-05-22T03:27:17.071Z,5.13
2023-05-22T03:29:46.598Z,5.60
2023-05-22T03:32:13.665Z,4.55
2023-05-22T03:34:41.342Z,5.72
2023-05-22T03:37:10.672Z,4.28
2023-05-22T03:39:39.539Z,5.18
2023-05-22T03:42:20.275Z,5.70
2023-05-22T03:45:07.982Z,7.57
2023-05-22T03:47:35.407Z,5.97
2023-05-22T03:50:03.497Z,8.82
2023-05-22T03:52:30.704Z,6.65
2023-05-22T03:54:57.995Z,8.02
2023-05-22T03:57:26.449Z,9.32
2023-05-22T04:00:02.867Z,7.80
2023-05-22T04:02:44.914Z,6.75
2023-05-22T04:06:31.875Z,8.15
2023-05-22T04:09:56.797Z,5.93
2023-05-22T04:12:25.575Z,5.88
2023-05-22T04:14:52.910Z,7.78
2023-05-22T04:17:19.903Z,6.22
2023-05-22T04:19:47.153Z,5.55
2023-05-22T04:22:14.475Z,5.57
2023-05-22T04:24:41.708Z,6.13
2023-05-22T04:27:10.946Z,8.57
2023-05-22T04:29:38.240Z,5.55
2023-05-22T04:32:06.293Z,5.20
2023-05-22T04:34:37.436Z,6.25
2023-05-22T04:37:06.191Z,6.00
2023-05-22T04:39:34.290Z,6.63
2023-05-22T04:42:05.885Z,6.68
2023-05-22T04:44:34.625Z,6.55
2023-05-22T04:47:06.847Z,7.75
2023-05-22T04:49:35.580Z,6.10
2023-05-22T04:52:04.759Z,7.78
2023-05-22T04:54:32.545Z,7.45
2023-05-22T04:57:03.590Z,7.28
2023-05-22T04:59:41.308Z,7.18
2023-05-22T05:02:09.376Z,8.43
2023-05-22T05:04:37.216Z,7.35
2023-05-22T05:07:06.105Z,11.10
2023-05-22T05:09:33.966Z,6.78
2023-05-22T05:12:03.158Z,6.82
2023-05-22T05:14:30.509Z,8.88
2023-05-22T05:16:58.698Z,6.50
2023-05-22T05:19:26.085Z,8.15
2023-05-22T05:21:53.254Z,6.05
2023-05-22T05:24:21.982Z,4.85
2023-05-22T05:26:51.050Z,7.38
2023-05-22T05:29:20.064Z,6.93
2023-05-22T05:32:07.701Z,7.38
2023-05-22T05:34:51.495Z,5.95
2023-05-22T05:37:26.218Z,5.85
2023-05-22T05:39:56.582Z,7.30
2023-05-22T05:42:23.886Z,7.72
2023-05-22T05:44:53.158Z,7.78
2023-05-22T05:47:24.100Z,7.95
2023-05-22T05:49:51.831Z,6.72
2023-05-22T05:52:19.507Z,4.80
2023-05-22T05:54:48.235Z,9.15
2023-05-22T05:57:19.983Z,5.40
2023-05-22T05:59:47.462Z,5.95
2023-05-22T06:02:34.252Z,7.43
2023-05-22T06:05:05.003Z,7.32
2023-05-22T06:07:38.039Z,5.85
2023-05-22T06:10:13.036Z,7.35
2023-05-22T06:23:28.243Z,6.55
2023-05-22T06:25:57.352Z,4.57
2023-05-22T06:28:25.773Z,5.65
2023-05-22T06:30:53.382Z,5.22
2023-05-22T06:33:23.219Z,4.63
2023-05-22T06:35:51.068Z,5.78
2023-05-22T06:38:18.707Z,5.95
2023-05-22T06:40:46.112Z,9.32
2023-05-22T06:43:18.564Z,6.32
2023-05-22T06:46:08.074Z,6.18
2023-05-22T06:51:32.769Z,6.35
2023-05-22T06:54:07.090Z,7.75
2023-05-22T06:56:36.816Z,5.97
2023-05-22T06:59:07.273Z,5.93
2023-05-22T07:01:53.297Z,7.93
2023-05-22T07:04:33.214Z,4.57
2023-05-22T07:07:29.018Z,6.13
2023-05-22T07:09:57.024Z,5.38
2023-05-22T07:12:26.833Z,6.05
2023-05-22T07:30:19.921Z,4.28
2023-05-22T07:38:12.607Z,7.05
2023-05-22T07:40:47.119Z,4.22
2023-05-22T07:43:15.380Z,5.35
2023-05-22T07:45:44.180Z,4.85
2023-05-22T07:48:14.705Z,7.20
2023-05-22T07:50:45.322Z,5.72
2023-05-22T07:53:12.415Z,4.57
2023-05-22T07:55:42.577Z,5.85
2023-05-22T07:58:10.781Z,7.50
2023-05-22T08:00:41.836Z,7.75
2023-05-22T08:03:09.380Z,5.53
2023-05-22T08:05:36.766Z,6.90
2023-05-22T08:08:04.742Z,4.60
2023-05-22T08:10:46.372Z,5.90
2023-05-22T08:13:19.558Z,5.07
2023-05-22T08:15:46.967Z,5.80
2023-05-22T08:18:14.473Z,6.70
2023-05-22T08:20:41.882Z,5.35
2023-05-22T08:23:09.185Z,4.45
2023-05-22T08:25:36.871Z,5.18
2023-05-22T08:28:04.295Z,5.65
2023-05-22T08:30:31.567Z,4.95
2023-05-22T08:32:58.664Z,4.22
2023-05-22T08:35:26.092Z,5.03
2023-05-22T08:37:53.125Z,5.13
2023-05-22T08:40:20.688Z,4.90
2023-05-22T08:42:48.280Z,3.88
2023-05-22T08:45:16.214Z,6.10
2023-05-22T08:47:51.814Z,4.82
2023-05-22T08:50:20.115Z,3.60
2023-05-22T08:52:52.235Z,5.15
2023-05-22T08:55:20.125Z,4.85
2023-05-22T08:57:47.769Z,8.68
2023-05-22T09:00:16.923Z,6.05
2023-05-22T09:02:45.235Z,6.32
2023-05-22T09:05:12.713Z,6.28
2023-05-22T09:07:40.728Z,7.40
2023-05-22T09:10:08.623Z,4.88
2023-05-22T09:12:35.830Z,5.38
2023-05-22T09:15:11.529Z,5.40
2023-05-22T09:17:41.422Z,3.80
2023-05-22T09:20:15.646Z,3.63
2023-05-22T09:22:42.844Z,5.30
2023-05-22T09:25:18.685Z,4.40
2023-05-22T09:27:47.600Z,4.38
2023-05-22T09:30:19.620Z,7.40
2023-05-22T09:35:18.416Z,3.92
2023-05-22T09:37:45.887Z,5.03
2023-05-22T09:40:14.223Z,3.42
2023-05-22T09:42:47.142Z,4.32
2023-05-22T09:45:14.545Z,4.43
2023-05-22T09:47:41.631Z,10.27
2023-05-22T09:50:10.790Z,3.88
2023-05-22T09:52:38.273Z,5.13
2023-05-22T09:55:08.810Z,5.28
2023-05-22T09:57:45.115Z,4.05
2023-05-22T10:00:19.327Z,3.33
2023-05-22T10:02:53.226Z,5.85
2023-05-22T10:05:29.966Z,4.57
2023-05-22T10:08:08.933Z,4.45
2023-05-22T10:10:38.636Z,4.30
2023-05-22T10:13:06.631Z,4.47
2023-05-22T10:15:35.924Z,6.90
2023-05-22T10:18:04.380Z,4.00
2023-05-22T10:20:31.935Z,3.78
2023-05-22T10:23:02.635Z,4.30
2023-05-22T10:25:30.583Z,7.60
2023-05-22T10:27:59.399Z,6.25
2023-05-22T10:30:40.726Z,5.32
2023-05-22T10:33:48.418Z,5.10
2023-05-22T10:37:13.145Z,4.13
2023-05-22T10:40:04.862Z,4.57
2023-05-22T10:42:32.817Z,5.10
2023-05-22T10:45:07.258Z,3.55
2023-05-22T10:47:34.987Z,4.85
2023-05-22T10:50:07.598Z,6.60
2023-05-22T10:52:36.904Z,4.47
2023-05-22T10:55:11.263Z,5.40
2023-05-22T10:57:39.961Z,4.90
2023-05-22T11:00:10.582Z,4.88
2023-05-22T11:02:44.811Z,4.22
2023-05-22T11:05:21.497Z,5.47
2023-05-22T11:07:49.729Z,6.25
2023-05-22T11:10:27.433Z,5.80
2023-05-22T11:13:12.352Z,3.38
2023-05-22T11:15:45.902Z,5.68
2023-05-22T11:18:15.201Z,7.47
2023-05-22T11:20:43.338Z,5.05
2023-05-22T11:23:11.657Z,4.25
2023-05-22T11:25:41.288Z,4.90
2023-05-22T11:28:10.663Z,4.85
2023-05-22T11:30:38.183Z,4.57
2023-05-22T11:33:06.952Z,3.15
2023-05-22T11:35:34.800Z,5.10
2023-05-22T11:38:07.203Z,4.45
2023-05-22T11:40:34.404Z,3.25
2023-05-22T11:43:03.990Z,4.28
2023-05-22T11:45:31.342Z,3.88
2023-05-22T11:47:59.160Z,5.38
2023-05-22T11:50:41.129Z,4.75
2023-05-22T11:53:10.821Z,4.40
2023-05-22T11:55:37.840Z,3.78
2023-05-22T11:58:05.345Z,6.03
2023-05-22T12:00:32.671Z,14.10
2023-05-22T12:03:00.539Z,6.65
2023-05-22T12:05:28.121Z,6.25
2023-05-22T12:07:55.874Z,4.50
2023-05-22T12:10:23.058Z,4.93
2023-05-22T12:12:50.644Z,5.20
2023-05-22T12:15:21.172Z,4.20
2023-05-22T12:17:48.776Z,2.90
2023-05-22T12:20:15.862Z,3.95
2023-05-22T12:22:44.275Z,3.50
2023-05-22T12:25:17.291Z,4.07
2023-05-22T12:27:46.057Z,3.58
2023-05-22T12:30:14.737Z,5.18
2023-05-22T12:32:49.224Z,3.40
2023-05-22T12:35:17.870Z,4.32
2023-05-22T12:37:50.261Z,5.32
2023-05-22T12:40:17.562Z,5.25
2023-05-22T12:42:45.100Z,5.32
2023-05-22T12:45:13.370Z,3.65
2023-05-22T12:47:40.815Z,4.95
2023-05-22T12:50:08.801Z,4.65
2023-05-22T12:52:36.278Z,4.95
2023-05-22T12:55:04.538Z,3.50
2023-05-22T12:57:31.976Z,3.75
2023-05-22T12:59:59.040Z,4.93
2023-05-22T13:02:26.712Z,3.30
2023-05-22T13:04:53.789Z,5.15
2023-05-22T13:07:21.107Z,3.80
2023-05-22T13:09:48.189Z,3.13
2023-05-22T13:12:15.483Z,5.20
2023-05-22T13:14:42.581Z,6.15
2023-05-22T13:17:10.534Z,5.70
2023-05-22T13:19:38.129Z,7.45
2023-05-22T13:22:07.423Z,4.45
2023-05-22T13:24:34.685Z,4.72
2023-05-22T13:27:02.789Z,4.13
2023-05-22T13:29:30.126Z,5.75
2023-05-22T13:31:57.326Z,5.13
2023-05-22T13:34:24.902Z,5.63
2023-05-22T13:36:52.455Z,4.68
2023-05-22T13:39:19.457Z,4.63
2023-05-22T13:41:46.853Z,5.10
2023-05-22T13:44:14.396Z,4.50
2023-05-22T13:46:41.777Z,4.85
2023-05-22T13:49:08.917Z,4.60
2023-05-22T13:51:36.268Z,5.18
2023-05-22T13:54:04.075Z,4.45
2023-05-22T13:56:31.487Z,7.13
2023-05-22T13:58:58.582Z,4.75
2023-05-22T14:01:26.117Z,6.07
2023-05-22T14:03:53.119Z,4.82
2023-05-22T14:06:20.491Z,5.82
2023-05-22T14:08:48.460Z,5.22
2023-05-22T14:11:15.874Z,5.15
2023-05-22T14:13:43.440Z,5.28
2023-05-22T14:16:10.716Z,4.78
2023-05-22T14:18:37.906Z,3.97
2023-05-22T14:21:05.437Z,3.67
2023-05-22T14:23:32.507Z,5.03
2023-05-22T14:25:59.684Z,5.20
2023-05-22T14:28:26.784Z,5.32
2023-05-22T14:30:54.210Z,6.20
2023-05-22T14:33:21.226Z,4.28
2023-05-22T14:35:48.702Z,4.80
2023-05-22T14:38:15.706Z,4.38
2023-05-22T14:40:43.169Z,7.30
2023-05-22T14:43:10.454Z,5.28
2023-05-22T14:45:37.922Z,5.15
2023-05-22T14:48:05.115Z,5.50
2023-05-22T14:50:32.704Z,6.50
2023-05-22T14:52:59.756Z,5.53
2023-05-22T14:55:28.093Z,7.43
2023-05-22T14:57:55.633Z,5.13
2023-05-22T15:00:23.133Z,5.85
2023-05-22T15:02:50.111Z,5.85
2023-05-22T15:05:17.963Z,3.80
2023-05-22T15:07:46.806Z,5.97
2023-05-22T15:10:15.359Z,5.97
2023-05-22T15:12:42.397Z,6.07
2023-05-22T15:15:10.265Z,6.07
2023-05-22T15:17:37.392Z,5.13
2023-05-22T15:20:07.031Z,5.40
2023-05-22T15:22:33.972Z,8.05
2023-05-22T15:25:06.315Z,6.28
2023-05-22T15:30:09.472Z,4.60
2023-05-22T15:32:38.041Z,4.93
2023-05-22T15:35:07.046Z,9.30
2023-05-22T15:37:34.470Z,17.70
2023-05-22T15:40:06.685Z,11.80
2023-05-22T15:45:03.493Z,8.63
2023-05-22T15:47:30.613Z,6.60
2023-05-22T15:49:57.824Z,8.60
2023-05-22T15:52:25.033Z,7.35
2023-05-22T15:54:52.883Z,8.25
2023-05-22T15:57:20.506Z,7.53
2023-05-22T15:59:50.562Z,7.72
2023-05-22T16:02:18.917Z,8.27
2023-05-22T16:04:46.806Z,8.05
2023-05-22T16:07:13.862Z,7.90
2023-05-22T16:09:43.289Z,6.53
2023-05-22T16:12:10.688Z,10.95
2023-05-22T16:14:39.873Z,10.40
2023-05-22T16:17:07.474Z,20.92
2023-05-22T16:19:35.050Z,17.08
2023-05-22T16:22:02.999Z,12.25
2023-05-22T16:24:30.563Z,9.15
2023-05-22T16:27:00.018Z,10.45
2023-05-22T16:29:27.328Z,9.43
2023-05-22T16:31:56.020Z,6.28
2023-05-22T16:34:23.380Z,10.38
2023-05-22T16:36:50.642Z,7.43
2023-05-22T16:39:17.932Z,8.30
2023-05-22T16:41:44.956Z,7.45
2023-05-22T16:44:12.475Z,7.50
2023-05-22T16:46:39.501Z,6.78
2023-05-22T16:49:06.704Z,9.27
2023-05-22T16:51:33.710Z,6.07
2023-05-22T16:54:00.987Z,4.70
2023-05-22T16:56:33.950Z,5.75
2023-05-22T16:59:05.728Z,6.15
2023-05-22T17:01:32.757Z,6.43
2023-05-22T17:04:00.006Z,6.88
2023-05-22T17:06:29.347Z,7.00
2023-05-22T17:08:56.530Z,5.45
2023-05-22T17:11:25.976Z,6.07
2023-05-22T17:13:53.341Z,6.28
2023-05-22T17:16:20.942Z,5.28
2023-05-22T17:18:48.336Z,7.88
2023-05-22T17:21:17.303Z,6.82
2023-05-22T17:23:44.532Z,7.30
2023-05-22T17:26:11.672Z,5.88
2023-05-22T17:28:39.240Z,5.10
2023-05-22T17:31:07.120Z,6.60
2023-05-22T17:33:34.638Z,6.50
2023-05-22T17:36:02.384Z,5.30
2023-05-22T17:38:29.587Z,6.15
2023-05-22T17:40:56.705Z,11.73
2023-05-22T17:43:24.165Z,6.55
2023-05-22T17:45:51.349Z,6.30
2023-05-22T17:48:23.817Z,6.30
2023-05-22T17:50:52.019Z,5.75
2023-05-22T17:53:20.874Z,7.80
2023-05-22T17:55:50.156Z,4.53
2023-05-22T17:58:20.515Z,5.18
2023-05-22T18:00:48.995Z,4.18
2023-05-22T18:03:22.578Z,4.90
2023-05-22T18:05:50.723Z,4.55
2023-05-22T18:08:19.064Z,4.82
2023-05-22T18:10:46.410Z,4.90
2023-05-22T18:13:13.799Z,5.85
2023-05-22T18:15:41.389Z,4.95
2023-05-22T18:18:10.669Z,5.40
2023-05-22T18:20:39.412Z,5.30
2023-05-22T18:23:07.257Z,4.90
2023-05-22T18:25:34.651Z,4.47
2023-05-22T18:28:02.834Z,6.15
2023-05-22T18:30:30.188Z,6.35
2023-05-22T18:32:57.715Z,4.60
2023-05-22T18:35:24.848Z,5.18
2023-05-22T18:37:52.865Z,6.38
2023-05-22T18:40:20.047Z,4.85
2023-05-22T18:42:47.493Z,6.05
2023-05-22T18:45:14.636Z,5.95
2023-05-22T18:47:42.016Z,5.72
2023-05-22T18:50:09.634Z,5.53
2023-05-22T18:52:37.854Z,5.57
2023-05-22T18:55:06.083Z,7.07
2023-05-22T18:57:33.481Z,5.80
2023-05-22T19:00:00.648Z,6.28
2023-05-22T19:02:29.576Z,6.32
2023-05-22T19:04:56.824Z,7.55
2023-05-22T19:07:24.143Z,6.45
2023-05-22T19:09:51.429Z,6.40
2023-05-22T19:12:20.761Z,7.22
2023-05-22T19:14:48.314Z,7.57
2023-05-22T19:17:16.081Z,8.10
2023-05-22T19:19:43.769Z,7.72
2023-05-22T19:22:12.087Z,8.43
2023-05-22T19:24:39.998Z,8.85
2023-05-22T19:27:07.279Z,8.02
2023-05-22T19:29:34.380Z,9.10
2023-05-22T19:32:02.418Z,8.05
2023-05-22T19:34:29.543Z,7.15
2023-05-22T19:36:57.892Z,6.38
2023-05-22T19:39:25.904Z,9.52
2023-05-22T19:41:54.394Z,7.78
2023-05-22T19:44:21.621Z,7.88
2023-05-22T19:46:48.967Z,7.43
2023-05-22T19:49:16.167Z,9.55
2023-05-22T19:51:44.359Z,8.80
2023-05-22T19:54:11.580Z,6.22
2023-05-22T19:56:39.343Z,8.05
2023-05-22T19:59:06.281Z,7.72
2023-05-22T20:01:33.668Z,8.00
2023-05-22T20:04:01.084Z,8.52
2023-05-22T20:06:32.650Z,8.95
2023-05-22T20:09:00.106Z,8.73
2023-05-22T20:11:29.832Z,10.20
2023-05-22T20:13:56.872Z,9.07
2023-05-22T20:16:26.882Z,11.23
2023-05-22T20:18:56.264Z,10.13
2023-05-22T20:21:23.733Z,10.73
2023-05-22T20:23:51.422Z,9.45
2023-05-22T20:26:19.750Z,8.27
2023-05-22T20:28:46.792Z,9.35
2023-05-22T20:31:14.354Z,7.93
2023-05-22T20:33:41.512Z,8.23
2023-05-22T20:36:09.603Z,9.85
2023-05-22T20:38:36.657Z,9.23
2023-05-22T20:41:08.097Z,9.80
2023-05-22T20:46:03.467Z,8.25
2023-05-22T20:48:30.533Z,9.75
2023-05-22T20:50:57.927Z,8.38
2023-05-22T20:53:25.158Z,10.05
2023-05-22T20:55:53.292Z,8.48
2023-05-22T20:58:20.390Z,11.50
2023-05-22T21:00:49.419Z,8.45
2023-05-22T21:03:17.636Z,8.57
2023-05-22T21:05:45.028Z,9.27
2023-05-22T21:08:12.354Z,7.90
2023-05-22T21:10:39.819Z,10.15
2023-05-22T21:13:07.221Z,9.13
2023-05-22T21:15:34.483Z,9.63
2023-05-22T21:18:02.360Z,8.18
2023-05-22T21:20:29.754Z,8.98
2023-05-22T21:22:56.812Z,9.02
2023-05-22T21:25:24.034Z,8.20
2023-05-22T21:27:51.144Z,9.82
2023-05-22T21:30:18.365Z,10.05
2023-05-22T21:32:45.603Z,9.43
2023-05-22T21:35:12.963Z,11.70
2023-05-22T21:37:40.690Z,8.48
2023-05-22T21:40:08.860Z,8.55
2023-05-22T21:42:45.803Z,8.40
2023-05-22T21:45:15.051Z,8.45
2023-05-22T21:47:42.132Z,7.50
2023-05-22T21:50:10.149Z,7.90
2023-05-22T21:52:37.098Z,7.72
2023-05-22T21:55:06.013Z,8.18
2023-05-22T21:57:32.951Z,7.85
2023-05-22T22:00:00.227Z,8.55
2023-05-22T22:02:27.362Z,7.50
2023-05-22T22:04:54.720Z,8.93
2023-05-22T22:07:21.711Z,7.57
2023-05-22T22:09:49.331Z,7.15
2023-05-22T22:12:16.344Z,6.97
2023-05-22T22:14:43.735Z,6.47
2023-05-22T22:17:10.699Z,9.52
2023-05-22T22:19:38.019Z,8.63
2023-05-22T22:22:05.689Z,8.20
2023-05-22T22:24:33.021Z,8.57
2023-05-22T22:26:59.929Z,8.65
2023-05-22T22:29:29.414Z,7.85
2023-05-22T22:31:56.362Z,8.77
2023-05-22T22:34:24.002Z,7.88
2023-05-22T22:36:50.984Z,7.72
2023-05-22T22:39:18.239Z,6.00
2023-05-22T22:41:45.273Z,8.38
2023-05-22T22:44:12.583Z,7.28
2023-05-22T22:46:39.789Z,6.82
2023-05-22T22:49:08.662Z,7.10
2023-05-22T22:51:36.658Z,6.32
2023-05-22T22:54:04.215Z,7.45
2023-05-22T22:56:31.434Z,6.95
2023-05-22T22:58:58.671Z,7.97
2023-05-22T23:01:25.657Z,5.40
2023-05-22T23:03:53.101Z,6.72
2023-05-22T23:06:20.128Z,8.77
2023-05-22T23:08:47.339Z,6.32
2023-05-22T23:11:14.316Z,7.22
2023-05-22T23:13:43.397Z,5.70
2023-05-22T23:16:10.843Z,7.60
2023-05-22T23:18:38.150Z,9.15
2023-05-22T23:21:05.594Z,6.70
2023-05-22T23:23:33.069Z,6.90
2023-05-22T23:26:00.366Z,7.60
2023-05-22T23:28:28.372Z,10.27
2023-05-22T23:30:57.292Z,8.00
2023-05-22T23:33:24.469Z,7.95
2023-05-22T23:35:51.466Z,8.38
2023-05-22T23:38:19.700Z,9.50
2023-05-22T23:40:46.890Z,8.10
2023-05-22T23:43:14.221Z,10.43
2023-05-22T23:45:41.477Z,8.35
2023-05-22T23:48:08.929Z,10.95
2023-05-22T23:50:36.179Z,9.02
2023-05-22T23:53:04.780Z,8.25
2023-05-22T23:55:31.742Z,7.35
2023-05-22T23:57:59.173Z,8.15
